sensor_id;sensor_type;location;lat;lon;timestamp;pressure;altitude;pressure_sealevel;temperature;humidity
14902;BME280;7542;49.078;9.194;2023-10-09T00:00:25;99198.22;;;29.70;35.73
14902;BME280;7542;49.078;9.194;2023-10-09T00:01:44;99189.81;;;29.72;35.76
14902;BME280;7542;49.078;9.194;2023-10-09T00:02:48;99199.59;;;29.68;36.27
14902;BME280;7542;49.078;9.194;2023-10-09T00:03:50;99195.28;;;29.62;36.05
14902;BME280;7542;49.078;9.194;2023-10-09T00:04:55;99194.50;;;29.61;35.99
14902;BME280;7542;49.078;9.194;2023-10-09T00:05:58;99185.06;;;29.59;35.83
14902;BME280;7542;49.078;9.194;2023-10-09T00:07:01;99189.13;;;29.56;36.20
14902;BME280;7542;49.078;9.194;2023-10-09T00:08:03;99184.28;;;29.53;36.44
14902;BME280;7542;49.078;9.194;2023-10-09T00:09:06;99188.88;;;29.53;36.18
14902;BME280;7542;49.078;9.194;2023-10-09T00:10:27;99187.78;;;29.54;36.41
14902;BME280;7542;49.078;9.194;2023-10-09T00:11:37;99188.06;;;29.52;35.82
14902;BME280;7542;49.078;9.194;2023-10-09T00:12:43;99179.41;;;29.50;35.96
14902;BME280;7542;49.078;9.194;2023-10-09T00:13:48;99184.31;;;29.48;36.18
14902;BME280;7542;49.078;9.194;2023-10-09T00:14:52;99189.16;;;29.46;35.98
14902;BME280;7542;49.078;9.194;2023-10-09T00:16:04;99181.31;;;29.50;36.47
14902;BME280;7542;49.078;9.194;2023-10-09T00:17:25;99186.19;;;29.48;36.38
14902;BME280;7542;49.078;9.194;2023-10-09T00:18:33;99183.22;;;29.44;36.02
14902;BME280;7542;49.078;9.194;2023-10-09T00:19:36;99189.16;;;29.41;36.61
14902;BME280;7542;49.078;9.194;2023-10-09T00:20:39;99180.53;;;29.39;36.63
14902;BME280;7542;49.078;9.194;2023-10-09T00:21:46;99185.13;;;29.38;36.14
14902;BME280;7542;49.078;9.194;2023-10-09T00:22:48;99184.88;;;29.35;35.94
14902;BME280;7542;49.078;9.194;2023-10-09T00:23:50;99184.88;;;29.35;36.04
14902;BME280;7542;49.078;9.194;2023-10-09T00:25:01;99188.41;;;29.35;36.21
14902;BME280;7542;49.078;9.194;2023-10-09T00:26:23;99184.88;;;29.35;36.53
14902;BME280;7542;49.078;9.194;2023-10-09T00:27:25;99182.75;;;29.32;36.37
14902;BME280;7542;49.078;9.194;2023-10-09T00:28:33;99186.53;;;29.31;36.22
14902;BME280;7542;49.078;9.194;2023-10-09T00:29:36;99186.78;;;29.29;36.54
14902;BME280;7542;49.078;9.194;2023-10-09T00:30:44;99187.06;;;29.28;36.60
14902;BME280;7542;49.078;9.194;2023-10-09T00:31:46;99186.53;;;29.26;36.45
14902;BME280;7542;49.078;9.194;2023-10-09T00:32:52;99185.47;;;29.27;36.19
14902;BME280;7542;49.078;9.194;2023-10-09T00:34:14;99187.88;;;29.28;36.75
14902;BME280;7542;49.078;9.194;2023-10-09T00:35:21;99187.63;;;29.25;36.64
14902;BME280;7542;49.078;9.194;2023-10-09T00:36:39;99181.94;;;29.26;36.51
14902;BME280;7542;49.078;9.194;2023-10-09T00:37:52;99184.94;;;29.25;36.47
14902;BME280;7542;49.078;9.194;2023-10-09T00:38:59;99183.59;;;29.22;36.36
14902;BME280;7542;49.078;9.194;2023-10-09T00:40:07;99188.19;;;29.22;36.76
14902;BME280;7542;49.078;9.194;2023-10-09T00:41:22;99176.31;;;29.23;36.24
14902;BME280;7542;49.078;9.194;2023-10-09T00:42:26;99179.53;;;29.20;36.84
14902;BME280;7542;49.078;9.194;2023-10-09T00:43:32;99180.09;;;29.16;36.20
14902;BME280;7542;49.078;9.194;2023-10-09T00:44:37;99173.09;;;29.15;36.72
14902;BME280;7542;49.078;9.194;2023-10-09T00:45:43;99183.88;;;29.15;36.65
14902;BME280;7542;49.078;9.194;2023-10-09T00:46:46;99171.47;;;29.14;36.48
14902;BME280;7542;49.078;9.194;2023-10-09T00:47:49;99182.56;;;29.13;36.63
14902;BME280;7542;49.078;9.194;2023-10-09T00:48:57;99173.91;;;29.16;36.57
14902;BME280;7542;49.078;9.194;2023-10-09T00:50:08;99172.81;;;29.17;36.26
14902;BME280;7542;49.078;9.194;2023-10-09T00:51:17;99166.34;;;29.13;36.62
14902;BME280;7542;49.078;9.194;2023-10-09T00:52:32;99169.31;;;29.16;36.48
14902;BME280;7542;49.078;9.194;2023-10-09T00:53:48;99161.75;;;29.13;36.55
14902;BME280;7542;49.078;9.194;2023-10-09T00:54:53;99163.41;;;29.09;36.21
14902;BME280;7542;49.078;9.194;2023-10-09T00:55:55;99166.34;;;29.08;36.28
14902;BME280;7542;49.078;9.194;2023-10-09T00:56:58;99158.81;;;29.05;36.85
14902;BME280;7542;49.078;9.194;2023-10-09T00:58:13;99160.44;;;29.06;36.63
14902;BME280;7542;49.078;9.194;2023-10-09T00:59:16;99161.53;;;29.05;36.73
14902;BME280;7542;49.078;9.194;2023-10-09T01:00:22;99154.50;;;29.04;36.50
14902;BME280;7542;49.078;9.194;2023-10-09T01:01:33;99159.09;;;29.03;36.87
14902;BME280;7542;49.078;9.194;2023-10-09T01:02:50;99156.13;;;29.05;36.34
14902;BME280;7542;49.078;9.194;2023-10-09T01:04:12;99151.53;;;29.05;36.50
14902;BME280;7542;49.078;9.194;2023-10-09T01:05:20;99148.31;;;29.03;36.38
14902;BME280;7542;49.078;9.194;2023-10-09T01:06:22;99150.47;;;29.01;36.53
14902;BME280;7542;49.078;9.194;2023-10-09T01:07:29;99154.25;;;29.00;36.75
14902;BME280;7542;49.078;9.194;2023-10-09T01:08:33;99147.78;;;29.01;36.76
14902;BME280;7542;49.078;9.194;2023-10-09T01:09:44;99145.88;;;29.02;36.71
14902;BME280;7542;49.078;9.194;2023-10-09T01:10:47;99148.34;;;28.98;36.52
14902;BME280;7542;49.078;9.194;2023-10-09T01:11:53;99151.03;;;28.98;36.39
14902;BME280;7542;49.078;9.194;2023-10-09T01:13:01;99146.44;;;28.99;36.51
14902;BME280;7542;49.078;9.194;2023-10-09T01:14:04;99136.97;;;28.96;36.53
14902;BME280;7542;49.078;9.194;2023-10-09T01:15:09;99145.06;;;28.96;36.47
14902;BME280;7542;49.078;9.194;2023-10-09T01:16:23;99147.78;;;29.01;36.30
14902;BME280;7542;49.078;9.194;2023-10-09T01:17:25;99146.16;;;28.95;36.44
14902;BME280;7542;49.078;9.194;2023-10-09T01:18:38;99140.47;;;28.97;36.73
14902;BME280;7542;49.078;9.194;2023-10-09T01:19:42;99141.84;;;28.94;36.89
14902;BME280;7542;49.078;9.194;2023-10-09T01:20:45;99141.03;;;28.94;36.45
14902;BME280;7542;49.078;9.194;2023-10-09T01:21:47;99145.13;;;28.91;36.97
14902;BME280;7542;49.078;9.194;2023-10-09T01:22:49;99141.59;;;28.91;36.87
14902;BME280;7542;49.078;9.194;2023-10-09T01:23:53;99139.72;;;28.91;36.97
14902;BME280;7542;49.078;9.194;2023-10-09T01:25:12;99135.66;;;28.94;36.62
14902;BME280;7542;49.078;9.194;2023-10-09T01:26:14;99132.69;;;28.90;36.52
14902;BME280;7542;49.078;9.194;2023-10-09T01:27:16;99139.19;;;28.89;36.89
14902;BME280;7542;49.078;9.194;2023-10-09T01:28:18;99129.47;;;28.88;36.86
14902;BME280;7542;49.078;9.194;2023-10-09T01:29:22;99136.50;;;28.89;36.81
14902;BME280;7542;49.078;9.194;2023-10-09T01:30:29;99143.50;;;28.90;37.06
14902;BME280;7542;49.078;9.194;2023-10-09T01:31:31;99136.50;;;28.89;36.97
14902;BME280;7542;49.078;9.194;2023-10-09T01:32:35;99132.97;;;28.89;36.94
14902;BME280;7542;49.078;9.194;2023-10-09T01:33:37;99132.41;;;28.86;37.06
14902;BME280;7542;49.078;9.194;2023-10-09T01:34:39;99134.28;;;28.86;36.52
14902;BME280;7542;49.078;9.194;2023-10-09T01:35:45;99128.88;;;28.86;36.74
14902;BME280;7542;49.078;9.194;2023-10-09T01:36:54;99123.25;;;28.87;36.57
14902;BME280;7542;49.078;9.194;2023-10-09T01:37:57;99135.38;;;28.85;36.72
14902;BME280;7542;49.078;9.194;2023-10-09T01:39:01;99130.25;;;28.83;36.71
14902;BME280;7542;49.078;9.194;2023-10-09T01:40:12;99135.09;;;28.86;36.78
14902;BME280;7542;49.078;9.194;2023-10-09T01:41:29;99127.00;;;28.86;36.63
14902;BME280;7542;49.078;9.194;2023-10-09T01:42:35;99125.38;;;28.85;36.73
14902;BME280;7542;49.078;9.194;2023-10-09T01:43:47;99126.75;;;28.83;36.89
14902;BME280;7542;49.078;9.194;2023-10-09T01:44:52;99128.38;;;28.84;36.63
14902;BME280;7542;49.078;9.194;2023-10-09T01:45:54;99124.34;;;28.81;36.86
14902;BME280;7542;49.078;9.194;2023-10-09T01:46:57;99127.03;;;28.81;36.81
14902;BME280;7542;49.078;9.194;2023-10-09T01:48:00;99128.13;;;28.80;36.87
14902;BME280;7542;49.078;9.194;2023-10-09T01:49:06;99123.53;;;28.81;36.76
14902;BME280;7542;49.078;9.194;2023-10-09T01:50:12;99127.31;;;28.80;36.81
14902;BME280;7542;49.078;9.194;2023-10-09T01:51:21;99131.63;;;28.81;36.72
14902;BME280;7542;49.078;9.194;2023-10-09T01:52:23;99131.09;;;28.79;36.92
14902;BME280;7542;49.078;9.194;2023-10-09T01:53:25;99129.47;;;28.78;37.00
14902;BME280;7542;49.078;9.194;2023-10-09T01:54:31;99118.69;;;28.78;37.02
14902;BME280;7542;49.078;9.194;2023-10-09T01:55:38;99127.31;;;28.80;37.01
14902;BME280;7542;49.078;9.194;2023-10-09T01:56:43;99122.19;;;28.78;36.83
14902;BME280;7542;49.078;9.194;2023-10-09T01:57:48;99122.47;;;28.77;36.60
14902;BME280;7542;49.078;9.194;2023-10-09T01:58:50;99118.13;;;28.76;37.02
14902;BME280;7542;49.078;9.194;2023-10-09T01:59:52;99125.41;;;28.75;37.20
14902;BME280;7542;49.078;9.194;2023-10-09T02:00:57;99127.03;;;28.76;36.83
14902;BME280;7542;49.078;9.194;2023-10-09T02:02:05;99118.94;;;28.76;37.03
14902;BME280;7542;49.078;9.194;2023-10-09T02:03:27;99128.13;;;28.80;36.71
14902;BME280;7542;49.078;9.194;2023-10-09T02:04:31;99120.56;;;28.77;36.65
14902;BME280;7542;49.078;9.194;2023-10-09T02:05:33;99123.00;;;28.74;37.08
14902;BME280;7542;49.078;9.194;2023-10-09T02:06:37;99122.19;;;28.73;36.80
14902;BME280;7542;49.078;9.194;2023-10-09T02:07:40;99117.88;;;28.72;36.92
14902;BME280;7542;49.078;9.194;2023-10-09T02:08:43;99116.00;;;28.73;36.86
14902;BME280;7542;49.078;9.194;2023-10-09T02:09:51;99118.69;;;28.73;36.89
14902;BME280;7542;49.078;9.194;2023-10-09T02:10:56;99120.59;;;28.72;36.77
14902;BME280;7542;49.078;9.194;2023-10-09T02:11:58;99122.47;;;28.72;36.91
14902;BME280;7542;49.078;9.194;2023-10-09T02:13:03;99117.06;;;28.72;36.99
14902;BME280;7542;49.078;9.194;2023-10-09T02:14:09;99114.38;;;28.72;36.72
14902;BME280;7542;49.078;9.194;2023-10-09T02:15:27;99117.31;;;28.75;36.88
14902;BME280;7542;49.078;9.194;2023-10-09T02:16:47;99112.72;;;28.76;36.60
14902;BME280;7542;49.078;9.194;2023-10-09T02:18:05;99111.41;;;28.73;36.82
14902;BME280;7542;49.078;9.194;2023-10-09T02:19:19;99114.38;;;28.72;36.50
14902;BME280;7542;49.078;9.194;2023-10-09T02:20:33;99118.69;;;28.73;36.50
14902;BME280;7542;49.078;9.194;2023-10-09T02:21:39;99114.94;;;28.69;36.44
14902;BME280;7542;49.078;9.194;2023-10-09T02:22:42;99113.84;;;28.70;36.65
14902;BME280;7542;49.078;9.194;2023-10-09T02:23:44;99115.22;;;28.67;36.70
14902;BME280;7542;49.078;9.194;2023-10-09T02:24:46;99114.41;;;28.67;36.79
14902;BME280;7542;49.078;9.194;2023-10-09T02:25:55;99110.34;;;28.64;36.84
14902;BME280;7542;49.078;9.194;2023-10-09T02:26:57;99115.50;;;28.66;36.74
14902;BME280;7542;49.078;9.194;2023-10-09T02:27:59;99115.50;;;28.66;36.72
14902;BME280;7542;49.078;9.194;2023-10-09T02:29:01;99115.75;;;28.64;36.93
14902;BME280;7542;49.078;9.194;2023-10-09T02:30:16;99106.31;;;28.67;37.03
14902;BME280;7542;49.078;9.194;2023-10-09T02:31:21;99101.16;;;28.65;36.62
14902;BME280;7542;49.078;9.194;2023-10-09T02:32:24;99104.94;;;28.64;36.86
14902;BME280;7542;49.078;9.194;2023-10-09T02:33:28;99109.53;;;28.64;36.70
14902;BME280;7542;49.078;9.194;2023-10-09T02:34:30;99099.84;;;28.63;36.99
14902;BME280;7542;49.078;9.194;2023-10-09T02:35:35;99099.84;;;28.63;36.88
14902;BME280;7542;49.078;9.194;2023-10-09T02:36:40;99098.22;;;28.62;37.11
14902;BME280;7542;49.078;9.194;2023-10-09T02:37:50;99097.66;;;28.65;36.72
14902;BME280;7542;49.078;9.194;2023-10-09T02:38:54;99089.03;;;28.63;36.92
14902;BME280;7542;49.078;9.194;2023-10-09T02:39:58;99090.66;;;28.64;36.79
14902;BME280;7542;49.078;9.194;2023-10-09T02:41:05;99086.34;;;28.63;36.81
14902;BME280;7542;49.078;9.194;2023-10-09T02:42:07;99086.63;;;28.61;36.75
14902;BME280;7542;49.078;9.194;2023-10-09T02:43:25;99091.47;;;28.64;36.84
14902;BME280;7542;49.078;9.194;2023-10-09T02:44:28;99087.16;;;28.63;36.71
14902;BME280;7542;49.078;9.194;2023-10-09T02:45:34;99086.63;;;28.61;36.69
14902;BME280;7542;49.078;9.194;2023-10-09T02:46:39;99087.44;;;28.62;36.93
14902;BME280;7542;49.078;9.194;2023-10-09T02:47:42;99095.53;;;28.62;36.77
14902;BME280;7542;49.078;9.194;2023-10-09T02:48:46;99092.28;;;28.59;37.00
14902;BME280;7542;49.078;9.194;2023-10-09T02:49:54;99093.09;;;28.60;36.82
14902;BME280;7542;49.078;9.194;2023-10-09T02:51:02;99090.41;;;28.60;36.68
14902;BME280;7542;49.078;9.194;2023-10-09T02:52:04;99085.00;;;28.60;36.90
14902;BME280;7542;49.078;9.194;2023-10-09T02:53:09;99091.50;;;28.59;36.92
14902;BME280;7542;49.078;9.194;2023-10-09T02:54:12;99088.25;;;28.57;36.82
14902;BME280;7542;49.078;9.194;2023-10-09T02:55:21;99079.88;;;28.58;36.64
14902;BME280;7542;49.078;9.194;2023-10-09T02:56:27;99090.69;;;28.58;36.60
14902;BME280;7542;49.078;9.194;2023-10-09T02:57:38;99092.28;;;28.59;36.63
14902;BME280;7542;49.078;9.194;2023-10-09T02:58:43;99096.06;;;28.58;36.68
14902;BME280;7542;49.078;9.194;2023-10-09T02:59:45;99094.75;;;28.56;36.64
14902;BME280;7542;49.078;9.194;2023-10-09T03:00:47;99091.25;;;28.55;36.75
14902;BME280;7542;49.078;9.194;2023-10-09T03:01:51;99091.25;;;28.55;36.83
14902;BME280;7542;49.078;9.194;2023-10-09T03:02:55;99098.25;;;28.56;36.56
14902;BME280;7542;49.078;9.194;2023-10-09T03:04:08;99092.53;;;28.63;36.59
14902;BME280;7542;49.078;9.194;2023-10-09T03:05:17;99093.38;;;28.58;36.48
14902;BME280;7542;49.078;9.194;2023-10-09T03:06:18;99089.34;;;28.56;36.83
14902;BME280;7542;49.078;9.194;2023-10-09T03:07:32;99090.16;;;28.56;36.87
14902;BME280;7542;49.078;9.194;2023-10-09T03:08:36;99088.53;;;28.55;36.51
14902;BME280;7542;49.078;9.194;2023-10-09T03:09:39;99094.47;;;28.52;36.58
14902;BME280;7542;49.078;9.194;2023-10-09T03:10:42;99094.19;;;28.54;36.72
14902;BME280;7542;49.078;9.194;2023-10-09T03:11:46;99095.00;;;28.54;36.88
14902;BME280;7542;49.078;9.194;2023-10-09T03:12:49;99096.88;;;28.54;36.57
14902;BME280;7542;49.078;9.194;2023-10-09T03:13:55;99096.88;;;28.54;36.45
14902;BME280;7542;49.078;9.194;2023-10-09T03:14:57;99087.47;;;28.51;36.45
14902;BME280;7542;49.078;9.194;2023-10-09T03:16:01;99086.38;;;28.52;36.65
14902;BME280;7542;49.078;9.194;2023-10-09T03:17:05;99087.47;;;28.51;36.32
14902;BME280;7542;49.078;9.194;2023-10-09T03:18:09;99082.06;;;28.51;36.64
14902;BME280;7542;49.078;9.194;2023-10-09T03:19:11;99083.16;;;28.50;36.47
14902;BME280;7542;49.078;9.194;2023-10-09T03:20:13;99078.84;;;28.49;36.85
14902;BME280;7542;49.078;9.194;2023-10-09T03:21:15;99073.44;;;28.49;36.56
14902;BME280;7542;49.078;9.194;2023-10-09T03:22:18;99076.13;;;28.49;36.84
14902;BME280;7542;49.078;9.194;2023-10-09T03:23:20;99072.63;;;28.49;36.92
14902;BME280;7542;49.078;9.194;2023-10-09T03:24:24;99079.91;;;28.48;36.59
14902;BME280;7542;49.078;9.194;2023-10-09T03:25:26;99078.03;;;28.49;36.79
14902;BME280;7542;49.078;9.194;2023-10-09T03:26:28;99076.13;;;28.49;36.89
14902;BME280;7542;49.078;9.194;2023-10-09T03:27:33;99076.13;;;28.49;36.87
14902;BME280;7542;49.078;9.194;2023-10-09T03:28:36;99078.84;;;28.49;36.60
14902;BME280;7542;49.078;9.194;2023-10-09T03:29:38;99074.53;;;28.48;36.30
14902;BME280;7542;49.078;9.194;2023-10-09T03:30:40;99081.00;;;28.47;36.85
14902;BME280;7542;49.078;9.194;2023-10-09T03:31:46;99068.31;;;28.48;36.69
14902;BME280;7542;49.078;9.194;2023-10-09T03:32:52;99069.41;;;28.47;36.62
14902;BME280;7542;49.078;9.194;2023-10-09T03:33:54;99072.34;;;28.50;36.49
14902;BME280;7542;49.078;9.194;2023-10-09T03:34:56;99071.81;;;28.48;36.47
14902;BME280;7542;49.078;9.194;2023-10-09T03:36:01;99070.22;;;28.47;36.32
14902;BME280;7542;49.078;9.194;2023-10-09T03:37:03;99068.59;;;28.46;36.70
14902;BME280;7542;49.078;9.194;2023-10-09T03:38:06;99070.22;;;28.47;36.73
14902;BME280;7542;49.078;9.194;2023-10-09T03:39:20;99072.09;;;28.47;36.75
14902;BME280;7542;49.078;9.194;2023-10-09T03:40:44;99073.97;;;28.51;36.77
14902;BME280;7542;49.078;9.194;2023-10-09T03:41:51;99072.91;;;28.47;36.66
14902;BME280;7542;49.078;9.194;2023-10-09T03:42:56;99078.31;;;28.47;36.46
14902;BME280;7542;49.078;9.194;2023-10-09T03:43:57;99076.97;;;28.45;36.80
14902;BME280;7542;49.078;9.194;2023-10-09T03:45:00;99068.31;;;28.43;36.68
14902;BME280;7542;49.078;9.194;2023-10-09T03:46:02;99075.34;;;28.44;36.52
14902;BME280;7542;49.078;9.194;2023-10-09T03:47:07;99066.72;;;28.42;36.73
14902;BME280;7542;49.078;9.194;2023-10-09T03:48:12;99073.72;;;28.43;36.52
14902;BME280;7542;49.078;9.194;2023-10-09T03:49:24;99072.63;;;28.44;36.64
14902;BME280;7542;49.078;9.194;2023-10-09T03:50:28;99074.00;;;28.41;37.13
14902;BME280;7542;49.078;9.194;2023-10-09T03:51:38;99074.53;;;28.43;36.84
14902;BME280;7542;49.078;9.194;2023-10-09T03:52:41;99076.41;;;28.43;36.78
14902;BME280;7542;49.078;9.194;2023-10-09T03:53:43;99076.41;;;28.43;36.51
14902;BME280;7542;49.078;9.194;2023-10-09T03:54:46;99075.59;;;28.42;36.44
14902;BME280;7542;49.078;9.194;2023-10-09T03:55:51;99076.69;;;28.41;36.75
14902;BME280;7542;49.078;9.194;2023-10-09T03:56:53;99077.78;;;28.40;36.36
14902;BME280;7542;49.078;9.194;2023-10-09T03:57:56;99083.16;;;28.40;36.64
14902;BME280;7542;49.078;9.194;2023-10-09T03:59:01;99079.13;;;28.38;36.81
14902;BME280;7542;49.078;9.194;2023-10-09T04:00:06;99074.56;;;28.38;36.50
14902;BME280;7542;49.078;9.194;2023-10-09T04:01:15;99081.28;;;28.41;36.43
14902;BME280;7542;49.078;9.194;2023-10-09T04:02:23;99078.88;;;28.39;36.30
14902;BME280;7542;49.078;9.194;2023-10-09T04:03:26;99082.66;;;28.38;36.51
14902;BME280;7542;49.078;9.194;2023-10-09T04:04:29;99080.22;;;28.37;36.57
14902;BME280;7542;49.078;9.194;2023-10-09T04:05:33;99087.75;;;28.40;36.77
14902;BME280;7542;49.078;9.194;2023-10-09T04:06:35;99085.63;;;28.37;36.48
14902;BME280;7542;49.078;9.194;2023-10-09T04:07:39;99082.66;;;28.38;36.43
14902;BME280;7542;49.078;9.194;2023-10-09T04:08:44;99087.50;;;28.36;36.40
14902;BME280;7542;49.078;9.194;2023-10-09T04:09:49;99089.13;;;28.37;36.53
14902;BME280;7542;49.078;9.194;2023-10-09T04:11:03;99092.06;;;28.41;36.48
14902;BME280;7542;49.078;9.194;2023-10-09T04:12:06;99086.44;;;28.37;36.54
14902;BME280;7542;49.078;9.194;2023-10-09T04:13:11;99095.06;;;28.39;36.43
14902;BME280;7542;49.078;9.194;2023-10-09T04:14:19;99098.84;;;28.38;36.54
14902;BME280;7542;49.078;9.194;2023-10-09T04:15:35;99093.44;;;28.38;36.46
14902;BME280;7542;49.078;9.194;2023-10-09T04:16:37;99086.97;;;28.34;36.50
14902;BME280;7542;49.078;9.194;2023-10-09T04:17:53;99091.81;;;28.37;36.62
14902;BME280;7542;49.078;9.194;2023-10-09T04:18:56;99097.50;;;28.36;36.64
14902;BME280;7542;49.078;9.194;2023-10-09T04:19:58;99096.16;;;28.33;36.40
14902;BME280;7542;49.078;9.194;2023-10-09T04:21:27;99090.22;;;28.36;36.42
14902;BME280;7542;49.078;9.194;2023-10-09T04:22:40;99100.72;;;28.38;36.49
14902;BME280;7542;49.078;9.194;2023-10-09T04:23:52;99092.63;;;28.38;36.49
14902;BME280;7542;49.078;9.194;2023-10-09T04:25:22;99081.84;;;28.38;36.42
14902;BME280;7542;49.078;9.194;2023-10-09T04:26:27;99095.06;;;28.34;36.71
14902;BME280;7542;49.078;9.194;2023-10-09T04:27:31;99089.41;;;28.36;36.34
14902;BME280;7542;49.078;9.194;2023-10-09T04:28:38;99093.47;;;28.33;36.60
14902;BME280;7542;49.078;9.194;2023-10-09T04:29:43;99089.13;;;28.32;36.68
14902;BME280;7542;49.078;9.194;2023-10-09T04:30:48;99092.91;;;28.31;36.70
14902;BME280;7542;49.078;9.194;2023-10-09T04:31:57;99084.53;;;28.33;36.30
14902;BME280;7542;49.078;9.194;2023-10-09T04:33:03;99084.81;;;28.31;36.55
14902;BME280;7542;49.078;9.194;2023-10-09T04:34:13;99082.13;;;28.31;36.23
14902;BME280;7542;49.078;9.194;2023-10-09T04:35:38;99085.91;;;28.35;36.37
14902;BME280;7542;49.078;9.194;2023-10-09T04:36:40;99077.53;;;28.32;36.66
14902;BME280;7542;49.078;9.194;2023-10-09T04:37:48;99081.31;;;28.30;36.55
14902;BME280;7542;49.078;9.194;2023-10-09T04:39:06;99079.97;;;28.33;36.48
14902;BME280;7542;49.078;9.194;2023-10-09T04:40:18;99081.03;;;28.32;36.39
14902;BME280;7542;49.078;9.194;2023-10-09T04:41:38;99082.91;;;28.32;36.45
14902;BME280;7542;49.078;9.194;2023-10-09T04:42:43;99075.63;;;28.27;36.54
14902;BME280;7542;49.078;9.194;2023-10-09T04:44:00;99075.38;;;28.28;36.50
14902;BME280;7542;49.078;9.194;2023-10-09T04:45:21;99071.59;;;28.29;36.68
14902;BME280;7542;49.078;9.194;2023-10-09T04:46:46;99069.44;;;28.32;36.48
14902;BME280;7542;49.078;9.194;2023-10-09T04:48:07;99074.31;;;28.29;36.60
14902;BME280;7542;49.078;9.194;2023-10-09T04:49:11;99075.63;;;28.27;36.35
14902;BME280;7542;49.078;9.194;2023-10-09T04:50:28;99079.97;;;28.28;36.22
14902;BME280;7542;49.078;9.194;2023-10-09T04:51:32;99075.63;;;28.27;36.32
14902;BME280;7542;49.078;9.194;2023-10-09T04:52:38;99074.00;;;28.26;36.46
14902;BME280;7542;49.078;9.194;2023-10-09T04:53:40;99074.56;;;28.23;36.45
14902;BME280;7542;49.078;9.194;2023-10-09T04:54:51;99077.00;;;28.24;36.64
14902;BME280;7542;49.078;9.194;2023-10-09T04:56:09;99077.28;;;28.28;36.32
14902;BME280;7542;49.078;9.194;2023-10-09T04:57:17;99074.28;;;28.24;36.18
14902;BME280;7542;49.078;9.194;2023-10-09T04:58:26;99074.81;;;28.26;36.70
14902;BME280;7542;49.078;9.194;2023-10-09T04:59:28;99074.56;;;28.23;36.68
14902;BME280;7542;49.078;9.194;2023-10-09T05:00:30;99066.72;;;28.21;36.40
14902;BME280;7542;49.078;9.194;2023-10-09T05:01:32;99066.72;;;28.21;36.56
14902;BME280;7542;49.078;9.194;2023-10-09T05:02:59;99069.72;;;28.25;36.33
14902;BME280;7542;49.078;9.194;2023-10-09T05:04:09;99065.94;;;28.26;36.46
14902;BME280;7542;49.078;9.194;2023-10-09T05:05:29;99061.34;;;28.26;36.29
14902;BME280;7542;49.078;9.194;2023-10-09T05:06:44;99064.31;;;28.25;36.33
14902;BME280;7542;49.078;9.194;2023-10-09T05:08:14;99055.13;;;28.26;36.38
14902;BME280;7542;49.078;9.194;2023-10-09T05:09:45;99056.75;;;28.27;36.57
14902;BME280;7542;49.078;9.194;2023-10-09T05:11:16;99060.28;;;28.27;36.32
14902;BME280;7542;49.078;9.194;2023-10-09T05:12:54;99056.75;;;28.27;36.23
14902;BME280;7542;49.078;9.194;2023-10-09T05:13:59;99056.75;;;28.22;36.43
14902;BME280;7542;49.078;9.194;2023-10-09T05:15:14;99060.53;;;28.21;36.61
14902;BME280;7542;49.078;9.194;2023-10-09T05:16:18;99060.81;;;28.19;36.68
14902;BME280;7542;49.078;9.194;2023-10-09T05:17:21;99058.38;;;28.18;36.63
14902;BME280;7542;49.078;9.194;2023-10-09T05:18:27;99057.59;;;28.17;36.63
14902;BME280;7542;49.078;9.194;2023-10-09T05:19:29;99058.94;;;28.15;36.81
14902;BME280;7542;49.078;9.194;2023-10-09T05:20:43;99050.31;;;28.18;36.54
14902;BME280;7542;49.078;9.194;2023-10-09T05:22:00;99060.81;;;28.19;36.37
14902;BME280;7542;49.078;9.194;2023-10-09T05:23:09;99058.38;;;28.18;36.66
14902;BME280;7542;49.078;9.194;2023-10-09T05:24:37;99065.91;;;28.21;36.55
14902;BME280;7542;49.078;9.194;2023-10-09T05:25:49;99064.59;;;28.18;36.48
14902;BME280;7542;49.078;9.194;2023-10-09T05:27:00;99067.56;;;28.17;36.44
14902;BME280;7542;49.078;9.194;2023-10-09T05:28:20;99061.09;;;28.18;36.46
14902;BME280;7542;49.078;9.194;2023-10-09T05:29:33;99059.47;;;28.17;36.59
14902;BME280;7542;49.078;9.194;2023-10-09T05:30:35;99073.78;;;28.12;36.55
14902;BME280;7542;49.078;9.194;2023-10-09T05:31:43;99070.00;;;28.13;36.53
14902;BME280;7542;49.078;9.194;2023-10-09T05:32:57;99069.72;;;28.15;36.44
14902;BME280;7542;49.078;9.194;2023-10-09T05:34:26;99077.53;;;28.16;36.30
14902;BME280;7542;49.078;9.194;2023-10-09T05:35:57;99077.25;;;28.18;36.26
14902;BME280;7542;49.078;9.194;2023-10-09T05:37:21;99076.47;;;28.17;36.69
14902;BME280;7542;49.078;9.194;2023-10-09T05:38:27;99078.63;;;28.15;36.46
14902;BME280;7542;49.078;9.194;2023-10-09T05:39:32;99086.19;;;28.13;36.45
14902;BME280;7542;49.078;9.194;2023-10-09T05:40:43;99078.38;;;28.12;36.50
14902;BME280;7542;49.078;9.194;2023-10-09T05:41:47;99077.53;;;28.11;36.54
14902;BME280;7542;49.078;9.194;2023-10-09T05:42:54;99068.63;;;28.11;36.55
14902;BME280;7542;49.078;9.194;2023-10-09T05:44:04;99080.22;;;28.11;36.64
14902;BME280;7542;49.078;9.194;2023-10-09T05:45:27;99082.69;;;28.13;36.33
14902;BME280;7542;49.078;9.194;2023-10-09T05:46:52;99079.72;;;28.14;36.23
14902;BME280;7542;49.078;9.194;2023-10-09T05:48:13;99077.81;;;28.15;36.36
14902;BME280;7542;49.078;9.194;2023-10-09T05:49:15;99088.31;;;28.11;36.31
14902;BME280;7542;49.078;9.194;2023-10-09T05:50:28;99084.81;;;28.11;36.50
14902;BME280;7542;49.078;9.194;2023-10-09T05:51:30;99088.88;;;28.08;36.46
14902;BME280;7542;49.078;9.194;2023-10-09T05:52:57;99084.81;;;28.11;36.52
14902;BME280;7542;49.078;9.194;2023-10-09T05:54:28;99086.47;;;28.12;36.35
14902;BME280;7542;49.078;9.194;2023-10-09T05:55:48;99084.81;;;28.11;36.57
14902;BME280;7542;49.078;9.194;2023-10-09T05:56:50;99101.25;;;28.09;36.30
14902;BME280;7542;49.078;9.194;2023-10-09T05:58:22;99091.56;;;28.13;36.47
14902;BME280;7542;49.078;9.194;2023-10-09T05:59:26;99092.38;;;28.09;36.25
14902;BME280;7542;49.078;9.194;2023-10-09T06:00:47;99099.66;;;28.08;36.50
14902;BME280;7542;49.078;9.194;2023-10-09T06:02:08;99102.06;;;28.10;36.27
14902;BME280;7542;49.078;9.194;2023-10-09T06:03:52;99101.78;;;28.11;36.54
14902;BME280;7542;49.078;9.194;2023-10-09T06:05:07;99099.66;;;28.08;36.38
14902;BME280;7542;49.078;9.194;2023-10-09T06:06:29;99095.06;;;28.09;36.41